sensor_id;sensor_type;location;lat;lon;timestamp;P1;durP1;ratioP1;P2;durP2;ratioP2
83649;SDS011;73612;50.948;6.956;2024-02-28T00:00:33;181.63;;;53.17;;
83649;SDS011;73612;50.948;6.956;2024-02-28T00:03:00;181.87;;;50.80;;
83649;SDS011;73612;50.948;6.956;2024-02-28T00:05:26;172.10;;;52.93;;
83649;SDS011;73612;50.948;6.956;2024-02-28T00:07:53;148.23;;;50.37;;
83649;SDS011;73612;50.948;6.956;2024-02-28T00:10:20;149.07;;;49.60;;
83649;SDS011;73612;50.948;6.956;2024-02-28T00:12:46;167.37;;;50.73;;
83649;SDS011;73612;50.948;6.956;2024-02-28T00:15:13;169.37;;;50.73;;
83649;SDS011;73612;50.948;6.956;2024-02-28T00:17:40;161.60;;;51.30;;
83649;SDS011;73612;50.948;6.956;2024-02-28T00:20:06;160.37;;;51.43;;
83649;SDS011;73612;50.948;6.956;2024-02-28T00:22:34;147.30;;;50.63;;
83649;SDS011;73612;50.948;6.956;2024-02-28T00:25:00;136.07;;;46.53;;
83649;SDS011;73612;50.948;6.956;2024-02-28T00:27:27;134.90;;;48.70;;
83649;SDS011;73612;50.948;6.956;2024-02-28T00:29:53;138.90;;;48.90;;
83649;SDS011;73612;50.948;6.956;2024-02-28T00:32:20;137.63;;;49.67;;
83649;SDS011;73612;50.948;6.956;2024-02-28T00:34:46;144.27;;;51.63;;
83649;SDS011;73612;50.948;6.956;2024-02-28T00:37:13;126.80;;;46.20;;
83649;SDS011;73612;50.948;6.956;2024-02-28T00:39:40;130.73;;;51.30;;
83649;SDS011;73612;50.948;6.956;2024-02-28T00:42:06;116.00;;;47.17;;
83649;SDS011;73612;50.948;6.956;2024-02-28T00:44:33;132.83;;;48.57;;
83649;SDS011;73612;50.948;6.956;2024-02-28T00:46:59;124.03;;;48.37;;
83649;SDS011;73612;50.948;6.956;2024-02-28T00:49:26;118.13;;;46.87;;
83649;SDS011;73612;50.948;6.956;2024-02-28T00:51:53;131.00;;;50.13;;
83649;SDS011;73612;50.948;6.956;2024-02-28T00:54:19;123.33;;;48.73;;
83649;SDS011;73612;50.948;6.956;2024-02-28T00:56:46;118.30;;;46.43;;
83649;SDS011;73612;50.948;6.956;2024-02-28T00:59:12;127.13;;;46.83;;
83649;SDS011;73612;50.948;6.956;2024-02-28T01:01:39;126.50;;;46.80;;
83649;SDS011;73612;50.948;6.956;2024-02-28T01:04:06;119.37;;;46.37;;
83649;SDS011;73612;50.948;6.956;2024-02-28T01:06:32;116.23;;;46.73;;
83649;SDS011;73612;50.948;6.956;2024-02-28T01:08:59;120.47;;;45.57;;
83649;SDS011;73612;50.948;6.956;2024-02-28T01:11:25;122.40;;;45.40;;
83649;SDS011;73612;50.948;6.956;2024-02-28T01:13:52;121.37;;;45.93;;
83649;SDS011;73612;50.948;6.956;2024-02-28T01:16:19;116.73;;;45.20;;
83649;SDS011;73612;50.948;6.956;2024-02-28T01:18:46;111.33;;;46.07;;
83649;SDS011;73612;50.948;6.956;2024-02-28T01:21:13;116.10;;;46.77;;
83649;SDS011;73612;50.948;6.956;2024-02-28T01:23:39;120.90;;;48.10;;
83649;SDS011;73612;50.948;6.956;2024-02-28T01:26:06;105.40;;;44.70;;
83649;SDS011;73612;50.948;6.956;2024-02-28T01:28:32;107.90;;;45.60;;
83649;SDS011;73612;50.948;6.956;2024-02-28T01:30:59;109.67;;;46.30;;
83649;SDS011;73612;50.948;6.956;2024-02-28T01:33:26;108.37;;;46.77;;
83649;SDS011;73612;50.948;6.956;2024-02-28T01:35:52;114.07;;;47.30;;
83649;SDS011;73612;50.948;6.956;2024-02-28T01:38:19;116.00;;;48.90;;
83649;SDS011;73612;50.948;6.956;2024-02-28T01:40:45;115.53;;;49.03;;
83649;SDS011;73612;50.948;6.956;2024-02-28T01:43:12;133.00;;;52.00;;
83649;SDS011;73612;50.948;6.956;2024-02-28T01:45:39;121.43;;;49.90;;
83649;SDS011;73612;50.948;6.956;2024-02-28T01:48:06;114.33;;;48.67;;
83649;SDS011;73612;50.948;6.956;2024-02-28T01:50:33;114.43;;;49.23;;
83649;SDS011;73612;50.948;6.956;2024-02-28T01:53:00;116.73;;;49.03;;
83649;SDS011;73612;50.948;6.956;2024-02-28T01:55:26;127.57;;;49.50;;
83649;SDS011;73612;50.948;6.956;2024-02-28T01:57:52;127.97;;;50.43;;
83649;SDS011;73612;50.948;6.956;2024-02-28T02:00:19;145.27;;;57.50;;
83649;SDS011;73612;50.948;6.956;2024-02-28T02:02:45;148.30;;;58.37;;
83649;SDS011;73612;50.948;6.956;2024-02-28T02:05:12;149.67;;;57.30;;
83649;SDS011;73612;50.948;6.956;2024-02-28T02:07:39;158.20;;;60.47;;
83649;SDS011;73612;50.948;6.956;2024-02-28T02:10:05;163.83;;;61.83;;
83649;SDS011;73612;50.948;6.956;2024-02-28T02:12:32;150.13;;;58.83;;
83649;SDS011;73612;50.948;6.956;2024-02-28T02:14:59;155.43;;;59.53;;
83649;SDS011;73612;50.948;6.956;2024-02-28T02:17:25;146.20;;;60.00;;
83649;SDS011;73612;50.948;6.956;2024-02-28T02:19:52;155.90;;;61.97;;
83649;SDS011;73612;50.948;6.956;2024-02-28T02:22:18;149.20;;;58.70;;
83649;SDS011;73612;50.948;6.956;2024-02-28T02:24:45;155.90;;;61.17;;
83649;SDS011;73612;50.948;6.956;2024-02-28T02:27:12;161.23;;;61.07;;
83649;SDS011;73612;50.948;6.956;2024-02-28T02:29:38;153.30;;;59.60;;
83649;SDS011;73612;50.948;6.956;2024-02-28T02:32:05;157.57;;;59.13;;
83649;SDS011;73612;50.948;6.956;2024-02-28T02:34:31;169.00;;;61.90;;
83649;SDS011;73612;50.948;6.956;2024-02-28T02:36:58;157.60;;;63.67;;
83649;SDS011;73612;50.948;6.956;2024-02-28T02:39:25;150.60;;;60.57;;
83649;SDS011;73612;50.948;6.956;2024-02-28T02:41:51;155.07;;;62.40;;
83649;SDS011;73612;50.948;6.956;2024-02-28T02:44:18;149.57;;;62.80;;
83649;SDS011;73612;50.948;6.956;2024-02-28T02:46:44;144.10;;;59.43;;
83649;SDS011;73612;50.948;6.956;2024-02-28T02:49:11;147.37;;;58.73;;
83649;SDS011;73612;50.948;6.956;2024-02-28T02:51:38;150.63;;;59.50;;
83649;SDS011;73612;50.948;6.956;2024-02-28T02:54:04;150.20;;;59.70;;
83649;SDS011;73612;50.948;6.956;2024-02-28T02:56:31;159.17;;;61.60;;
83649;SDS011;73612;50.948;6.956;2024-02-28T02:58:58;149.97;;;58.63;;
83649;SDS011;73612;50.948;6.956;2024-02-28T03:01:24;154.43;;;59.97;;
83649;SDS011;73612;50.948;6.956;2024-02-28T03:03:51;140.90;;;55.47;;
83649;SDS011;73612;50.948;6.956;2024-02-28T03:06:17;138.80;;;57.83;;
83649;SDS011;73612;50.948;6.956;2024-02-28T03:08:44;145.73;;;56.27;;
83649;SDS011;73612;50.948;6.956;2024-02-28T03:11:11;159.07;;;60.63;;
83649;SDS011;73612;50.948;6.956;2024-02-28T03:13:37;146.97;;;58.50;;
83649;SDS011;73612;50.948;6.956;2024-02-28T03:16:04;148.57;;;58.47;;
83649;SDS011;73612;50.948;6.956;2024-02-28T03:18:31;149.67;;;60.33;;
83649;SDS011;73612;50.948;6.956;2024-02-28T03:20:57;151.63;;;59.60;;
83649;SDS011;73612;50.948;6.956;2024-02-28T03:23:24;159.67;;;59.87;;
83649;SDS011;73612;50.948;6.956;2024-02-28T03:25:50;150.50;;;56.67;;
83649;SDS011;73612;50.948;6.956;2024-02-28T03:28:17;164.47;;;63.10;;
83649;SDS011;73612;50.948;6.956;2024-02-28T03:30:44;154.43;;;57.70;;
83649;SDS011;73612;50.948;6.956;2024-02-28T03:33:10;164.63;;;62.43;;
83649;SDS011;73612;50.948;6.956;2024-02-28T03:35:37;137.30;;;51.70;;
83649;SDS011;73612;50.948;6.956;2024-02-28T03:38:03;147.30;;;54.47;;
83649;SDS011;73612;50.948;6.956;2024-02-28T03:40:30;147.53;;;55.90;;
83649;SDS011;73612;50.948;6.956;2024-02-28T03:42:57;143.63;;;56.57;;
83649;SDS011;73612;50.948;6.956;2024-02-28T03:45:23;162.07;;;55.33;;
83649;SDS011;73612;50.948;6.956;2024-02-28T03:47:50;159.40;;;58.47;;
83649;SDS011;73612;50.948;6.956;2024-02-28T03:50:16;146.10;;;53.13;;
83649;SDS011;73612;50.948;6.956;2024-02-28T03:52:43;153.10;;;56.13;;
83649;SDS011;73612;50.948;6.956;2024-02-28T03:55:10;167.90;;;57.13;;
83649;SDS011;73612;50.948;6.956;2024-02-28T03:57:36;153.07;;;55.63;;
83649;SDS011;73612;50.948;6.956;2024-02-28T04:00:03;154.30;;;54.33;;
83649;SDS011;73612;50.948;6.956;2024-02-28T04:02:30;168.70;;;57.70;;
83649;SDS011;73612;50.948;6.956;2024-02-28T04:04:56;147.53;;;53.27;;
83649;SDS011;73612;50.948;6.956;2024-02-28T04:07:23;161.70;;;57.67;;
83649;SDS011;73612;50.948;6.956;2024-02-28T04:09:50;157.70;;;54.73;;
83649;SDS011;73612;50.948;6.956;2024-02-28T04:12:16;151.37;;;55.57;;
83649;SDS011;73612;50.948;6.956;2024-02-28T04:14:43;160.97;;;56.93;;
83649;SDS011;73612;50.948;6.956;2024-02-28T04:17:09;158.27;;;56.23;;
83649;SDS011;73612;50.948;6.956;2024-02-28T04:19:37;158.90;;;57.90;;
83649;SDS011;73612;50.948;6.956;2024-02-28T04:22:03;171.93;;;59.00;;
83649;SDS011;73612;50.948;6.956;2024-02-28T04:24:30;168.10;;;60.30;;
83649;SDS011;73612;50.948;6.956;2024-02-28T04:26:57;168.70;;;60.93;;
83649;SDS011;73612;50.948;6.956;2024-02-28T04:29:23;169.43;;;59.80;;
83649;SDS011;73612;50.948;6.956;2024-02-28T04:31:50;175.93;;;61.57;;
83649;SDS011;73612;50.948;6.956;2024-02-28T04:34:16;153.97;;;56.70;;
83649;SDS011;73612;50.948;6.956;2024-02-28T04:36:43;162.80;;;59.10;;
83649;SDS011;73612;50.948;6.956;2024-02-28T04:39:09;165.57;;;58.47;;
83649;SDS011;73612;50.948;6.956;2024-02-28T04:41:36;151.70;;;56.80;;
83649;SDS011;73612;50.948;6.956;2024-02-28T04:44:03;163.87;;;59.53;;
83649;SDS011;73612;50.948;6.956;2024-02-28T04:46:29;157.93;;;52.30;;
83649;SDS011;73612;50.948;6.956;2024-02-28T04:48:56;166.17;;;59.03;;
83649;SDS011;73612;50.948;6.956;2024-02-28T04:51:22;179.67;;;59.67;;
83649;SDS011;73612;50.948;6.956;2024-02-28T04:53:49;167.80;;;57.20;;
83649;SDS011;73612;50.948;6.956;2024-02-28T04:56:16;168.00;;;60.37;;
83649;SDS011;73612;50.948;6.956;2024-02-28T04:58:42;182.17;;;60.90;;
83649;SDS011;73612;50.948;6.956;2024-02-28T05:01:09;177.27;;;59.20;;
83649;SDS011;73612;50.948;6.956;2024-02-28T05:03:36;171.20;;;57.63;;
83649;SDS011;73612;50.948;6.956;2024-02-28T05:06:02;164.70;;;55.07;;
83649;SDS011;73612;50.948;6.956;2024-02-28T05:08:29;169.63;;;58.30;;
83649;SDS011;73612;50.948;6.956;2024-02-28T05:10:56;163.93;;;57.33;;
83649;SDS011;73612;50.948;6.956;2024-02-28T05:13:22;170.47;;;55.77;;
83649;SDS011;73612;50.948;6.956;2024-02-28T05:15:49;159.93;;;57.87;;
83649;SDS011;73612;50.948;6.956;2024-02-28T05:18:16;161.20;;;54.67;;
83649;SDS011;73612;50.948;6.956;2024-02-28T05:20:42;173.50;;;57.23;;
83649;SDS011;73612;50.948;6.956;2024-02-28T05:23:09;163.07;;;56.10;;
83649;SDS011;73612;50.948;6.956;2024-02-28T05:25:35;173.60;;;58.77;;
83649;SDS011;73612;50.948;6.956;2024-02-28T05:28:02;162.90;;;56.87;;
83649;SDS011;73612;50.948;6.956;2024-02-28T05:30:29;162.83;;;56.83;;
83649;SDS011;73612;50.948;6.956;2024-02-28T05:32:55;159.30;;;54.93;;
83649;SDS011;73612;50.948;6.956;2024-02-28T05:35:22;162.47;;;54.73;;
83649;SDS011;73612;50.948;6.956;2024-02-28T05:37:52;159.03;;;55.97;;
83649;SDS011;73612;50.948;6.956;2024-02-28T05:40:15;175.30;;;59.33;;
83649;SDS011;73612;50.948;6.956;2024-02-28T05:42:42;170.53;;;56.50;;
83649;SDS011;73612;50.948;6.956;2024-02-28T05:45:08;148.83;;;54.00;;
83649;SDS011;73612;50.948;6.956;2024-02-28T05:47:35;161.57;;;56.50;;
83649;SDS011;73612;50.948;6.956;2024-02-28T05:50:02;161.83;;;54.73;;
83649;SDS011;73612;50.948;6.956;2024-02-28T05:52:28;141.87;;;54.03;;
83649;SDS011;73612;50.948;6.956;2024-02-28T05:54:55;154.90;;;55.90;;
83649;SDS011;73612;50.948;6.956;2024-02-28T05:57:21;159.03;;;56.20;;
83649;SDS011;73612;50.948;6.956;2024-02-28T05:59:48;157.30;;;54.17;;
83649;SDS011;73612;50.948;6.956;2024-02-28T06:02:15;150.77;;;54.43;;
83649;SDS011;73612;50.948;6.956;2024-02-28T06:04:41;165.60;;;55.63;;
83649;SDS011;73612;50.948;6.956;2024-02-28T06:07:08;154.27;;;53.57;;
83649;SDS011;73612;50.948;6.956;2024-02-28T06:09:34;157.17;;;55.93;;
83649;SDS011;73612;50.948;6.956;2024-02-28T06:12:01;158.33;;;56.27;;
83649;SDS011;73612;50.948;6.956;2024-02-28T06:14:28;170.17;;;56.20;;
83649;SDS011;73612;50.948;6.956;2024-02-28T06:16:54;168.30;;;59.83;;
83649;SDS011;73612;50.948;6.956;2024-02-28T06:19:21;174.67;;;56.13;;
83649;SDS011;73612;50.948;6.956;2024-02-28T06:21:47;162.37;;;55.53;;
83649;SDS011;73612;50.948;6.956;2024-02-28T06:24:14;164.07;;;54.83;;
83649;SDS011;73612;50.948;6.956;2024-02-28T06:26:41;154.50;;;55.07;;
83649;SDS011;73612;50.948;6.956;2024-02-28T06:29:07;171.57;;;54.33;;
83649;SDS011;73612;50.948;6.956;2024-02-28T06:31:34;161.93;;;53.20;;
83649;SDS011;73612;50.948;6.956;2024-02-28T06:34:00;158.30;;;53.77;;
83649;SDS011;73612;50.948;6.956;2024-02-28T06:36:27;163.83;;;55.53;;
83649;SDS011;73612;50.948;6.956;2024-02-28T06:38:54;174.60;;;57.67;;
83649;SDS011;73612;50.948;6.956;2024-02-28T06:41:20;154.43;;;52.43;;
83649;SDS011;73612;50.948;6.956;2024-02-28T06:43:47;157.53;;;52.97;;
83649;SDS011;73612;50.948;6.956;2024-02-28T06:46:13;156.83;;;52.83;;
83649;SDS011;73612;50.948;6.956;2024-02-28T06:48:40;153.67;;;53.27;;
83649;SDS011;73612;50.948;6.956;2024-02-28T06:51:07;161.30;;;52.63;;
83649;SDS011;73612;50.948;6.956;2024-02-28T06:53:33;165.83;;;56.73;;
83649;SDS011;73612;50.948;6.956;2024-02-28T06:56:01;174.37;;;58.57;;
83649;SDS011;73612;50.948;6.956;2024-02-28T06:58:26;160.93;;;56.87;;
83649;SDS011;73612;50.948;6.956;2024-02-28T07:00:53;191.30;;;59.07;;
83649;SDS011;73612;50.948;6.956;2024-02-28T07:03:20;191.43;;;61.23;;
83649;SDS011;73612;50.948;6.956;2024-02-28T07:05:46;189.50;;;60.07;;
83649;SDS011;73612;50.948;6.956;2024-02-28T07:08:13;187.73;;;61.50;;
83649;SDS011;73612;50.948;6.956;2024-02-28T07:10:39;193.50;;;60.90;;
83649;SDS011;73612;50.948;6.956;2024-02-28T07:13:06;184.13;;;58.83;;
83649;SDS011;73612;50.948;6.956;2024-02-28T07:15:32;179.47;;;56.67;;
83649;SDS011;73612;50.948;6.956;2024-02-28T07:17:59;166.93;;;56.37;;
83649;SDS011;73612;50.948;6.956;2024-02-28T07:20:26;167.87;;;56.73;;
83649;SDS011;73612;50.948;6.956;2024-02-28T07:22:52;165.90;;;55.77;;
83649;SDS011;73612;50.948;6.956;2024-02-28T07:25:19;167.27;;;54.80;;
83649;SDS011;73612;50.948;6.956;2024-02-28T07:27:45;153.03;;;55.10;;
83649;SDS011;73612;50.948;6.956;2024-02-28T07:30:12;153.37;;;54.07;;
83649;SDS011;73612;50.948;6.956;2024-02-28T07:32:39;163.47;;;54.50;;
83649;SDS011;73612;50.948;6.956;2024-02-28T07:35:06;160.63;;;53.57;;
83649;SDS011;73612;50.948;6.956;2024-02-28T07:37:33;170.83;;;55.63;;
83649;SDS011;73612;50.948;6.956;2024-02-28T07:39:59;164.50;;;52.23;;
83649;SDS011;73612;50.948;6.956;2024-02-28T07:42:26;179.73;;;55.83;;
83649;SDS011;73612;50.948;6.956;2024-02-28T07:44:52;165.43;;;57.40;;
83649;SDS011;73612;50.948;6.956;2024-02-28T07:47:19;166.30;;;54.73;;
83649;SDS011;73612;50.948;6.956;2024-02-28T07:49:45;153.30;;;53.30;;
83649;SDS011;73612;50.948;6.956;2024-02-28T07:52:13;161.70;;;56.30;;
83649;SDS011;73612;50.948;6.956;2024-02-28T07:54:42;142.17;;;51.63;;
83649;SDS011;73612;50.948;6.956;2024-02-28T07:57:09;159.83;;;54.27;;
83649;SDS011;73612;50.948;6.956;2024-02-28T07:59:39;155.87;;;56.83;;
83649;SDS011;73612;50.948;6.956;2024-02-28T08:02:05;157.30;;;55.20;;
83649;SDS011;73612;50.948;6.956;2024-02-28T08:04:32;165.33;;;55.27;;
83649;SDS011;73612;50.948;6.956;2024-02-28T08:06:58;155.37;;;53.03;;
83649;SDS011;73612;50.948;6.956;2024-02-28T08:09:25;163.53;;;55.13;;
83649;SDS011;73612;50.948;6.956;2024-02-28T08:11:52;156.03;;;56.27;;
83649;SDS011;73612;50.948;6.956;2024-02-28T08:14:18;147.67;;;54.57;;
83649;SDS011;73612;50.948;6.956;2024-02-28T08:16:45;147.93;;;52.03;;
83649;SDS011;73612;50.948;6.956;2024-02-28T08:19:11;144.10;;;53.50;;
83649;SDS011;73612;50.948;6.956;2024-02-28T08:21:38;144.40;;;54.47;;
83649;SDS011;73612;50.948;6.956;2024-02-28T08:24:05;139.80;;;53.60;;
83649;SDS011;73612;50.948;6.956;2024-02-28T08:26:31;140.43;;;52.13;;
83649;SDS011;73612;50.948;6.956;2024-02-28T08:28:58;138.60;;;53.07;;
83649;SDS011;73612;50.948;6.956;2024-02-28T08:31:25;144.27;;;55.90;;
83649;SDS011;73612;50.948;6.956;2024-02-28T08:33:51;138.13;;;55.37;;
83649;SDS011;73612;50.948;6.956;2024-02-28T08:36:18;143.17;;;53.07;;
83649;SDS011;73612;50.948;6.956;2024-02-28T08:38:44;131.60;;;52.20;;
83649;SDS011;73612;50.948;6.956;2024-02-28T08:41:11;135.93;;;54.63;;
83649;SDS011;73612;50.948;6.956;2024-02-28T08:43:39;137.80;;;53.90;;
83649;SDS011;73612;50.948;6.956;2024-02-28T08:46:04;135.87;;;53.83;;
83649;SDS011;73612;50.948;6.956;2024-02-28T08:48:31;131.43;;;53.37;;
83649;SDS011;73612;50.948;6.956;2024-02-28T08:50:57;133.57;;;54.33;;
83649;SDS011;73612;50.948;6.956;2024-02-28T08:53:24;136.40;;;52.63;;
83649;SDS011;73612;50.948;6.956;2024-02-28T08:55:51;136.27;;;52.83;;
83649;SDS011;73612;50.948;6.956;2024-02-28T08:58:17;125.93;;;51.37;;
83649;SDS011;73612;50.948;6.956;2024-02-28T09:00:44;123.27;;;51.80;;
83649;SDS011;73612;50.948;6.956;2024-02-28T09:03:10;116.63;;;50.03;;
83649;SDS011;73612;50.948;6.956;2024-02-28T09:05:37;111.03;;;47.93;;
83649;SDS011;73612;50.948;6.956;2024-02-28T09:08:04;118.73;;;50.43;;
83649;SDS011;73612;50.948;6.956;2024-02-28T09:10:30;106.57;;;47.40;;
83649;SDS011;73612;50.948;6.956;2024-02-28T09:12:57;114.87;;;49.07;;
83649;SDS011;73612;50.948;6.956;2024-02-28T09:15:24;110.63;;;46.27;;
83649;SDS011;73612;50.948;6.956;2024-02-28T09:17:50;105.60;;;46.70;;
83649;SDS011;73612;50.948;6.956;2024-02-28T09:20:17;115.90;;;49.87;;
83649;SDS011;73612;50.948;6.956;2024-02-28T09:22:43;116.13;;;46.20;;
83649;SDS011;73612;50.948;6.956;2024-02-28T09:25:10;105.17;;;47.57;;
83649;SDS011;73612;50.948;6.956;2024-02-28T09:27:37;111.33;;;45.83;;
83649;SDS011;73612;50.948;6.956;2024-02-28T09:30:03;120.27;;;48.97;;
83649;SDS011;73612;50.948;6.956;2024-02-28T09:32:30;105.40;;;47.20;;
83649;SDS011;73612;50.948;6.956;2024-02-28T09:34:57;121.40;;;49.73;;
83649;SDS011;73612;50.948;6.956;2024-02-28T09:37:23;103.57;;;47.27;;
83649;SDS011;73612;50.948;6.956;2024-02-28T09:39:50;112.50;;;48.47;;
83649;SDS011;73612;50.948;6.956;2024-02-28T09:42:18;101.33;;;46.10;;
83649;SDS011;73612;50.948;6.956;2024-02-28T09:44:44;104.70;;;45.93;;
83649;SDS011;73612;50.948;6.956;2024-02-28T09:47:11;98.43;;;44.13;;
83649;SDS011;73612;50.948;6.956;2024-02-28T09:49:37;108.13;;;48.13;;
83649;SDS011;73612;50.948;6.956;2024-02-28T09:52:04;105.10;;;46.13;;
83649;SDS011;73612;50.948;6.956;2024-02-28T09:54:31;101.50;;;47.00;;
83649;SDS011;73612;50.948;6.956;2024-02-28T09:56:57;98.70;;;46.00;;
83649;SDS011;73612;50.948;6.956;2024-02-28T09:59:24;100.80;;;46.17;;
83649;SDS011;73612;50.948;6.956;2024-02-28T10:01:53;102.03;;;44.97;;
83649;SDS011;73612;50.948;6.956;2024-02-28T10:04:18;108.50;;;46.93;;
83649;SDS011;73612;50.948;6.956;2024-02-28T10:06:44;96.70;;;44.67;;
83649;SDS011;73612;50.948;6.956;2024-02-28T10:09:11;99.27;;;45.20;;
83649;SDS011;73612;50.948;6.956;2024-02-28T10:11:38;99.17;;;44.70;;
83649;SDS011;73612;50.948;6.956;2024-02-28T10:14:04;94.47;;;45.53;;
83649;SDS011;73612;50.948;6.956;2024-02-28T10:16:31;93.60;;;46.47;;
83649;SDS011;73612;50.948;6.956;2024-02-28T10:18:57;98.53;;;44.53;;
83649;SDS011;73612;50.948;6.956;2024-02-28T10:21:24;98.53;;;46.50;;
83649;SDS011;73612;50.948;6.956;2024-02-28T10:23:51;99.40;;;45.53;;
83649;SDS011;73612;50.948;6.956;2024-02-28T10:26:17;98.93;;;46.27;;
83649;SDS011;73612;50.948;6.956;2024-02-28T10:28:44;92.87;;;45.03;;
83649;SDS011;73612;50.948;6.956;2024-02-28T10:31:10;99.77;;;45.20;;
83649;SDS011;73612;50.948;6.956;2024-02-28T10:33:37;93.50;;;44.73;;
83649;SDS011;73612;50.948;6.956;2024-02-28T10:36:04;94.67;;;45.80;;
83649;SDS011;73612;50.948;6.956;2024-02-28T10:38:31;98.20;;;46.30;;
83649;SDS011;73612;50.948;6.956;2024-02-28T10:40:57;97.03;;;45.57;;
83649;SDS011;73612;50.948;6.956;2024-02-28T10:43:24;90.97;;;43.30;;
83649;SDS011;73612;50.948;6.956;2024-02-28T10:45:50;91.53;;;44.27;;
83649;SDS011;73612;50.948;6.956;2024-02-28T10:48:17;92.87;;;45.10;;
83649;SDS011;73612;50.948;6.956;2024-02-28T10:50:44;93.20;;;45.30;;
83649;SDS011;73612;50.948;6.956;2024-02-28T10:53:13;96.50;;;45.57;;
83649;SDS011;73612;50.948;6.956;2024-02-28T10:55:39;93.07;;;42.97;;
83649;SDS011;73612;50.948;6.956;2024-02-28T10:58:07;89.63;;;44.20;;
83649;SDS011;73612;50.948;6.956;2024-02-28T11:00:34;87.27;;;42.93;;
83649;SDS011;73612;50.948;6.956;2024-02-28T11:03:00;84.67;;;42.33;;
83649;SDS011;73612;50.948;6.956;2024-02-28T11:05:43;83.70;;;40.70;;
83649;SDS011;73612;50.948;6.956;2024-02-28T11:08:10;87.07;;;42.27;;
83649;SDS011;73612;50.948;6.956;2024-02-28T11:10:40;80.23;;;42.50;;
83649;SDS011;73612;50.948;6.956;2024-02-28T11:13:07;78.37;;;39.60;;
83649;SDS011;73612;50.948;6.956;2024-02-28T11:15:34;81.83;;;40.13;;
83649;SDS011;73612;50.948;6.956;2024-02-28T11:18:07;73.40;;;37.53;;
83649;SDS011;73612;50.948;6.956;2024-02-28T11:20:35;79.07;;;41.80;;
83649;SDS011;73612;50.948;6.956;2024-02-28T11:23:01;72.93;;;39.00;;
83649;SDS011;73612;50.948;6.956;2024-02-28T11:25:28;71.27;;;37.90;;
83649;SDS011;73612;50.948;6.956;2024-02-28T11:27:55;72.53;;;40.63;;
83649;SDS011;73612;50.948;6.956;2024-02-28T11:30:21;72.20;;;41.20;;
83649;SDS011;73612;50.948;6.956;2024-02-28T11:32:48;69.23;;;39.30;;
83649;SDS011;73612;50.948;6.956;2024-02-28T11:35:14;75.23;;;41.60;;
83649;SDS011;73612;50.948;6.956;2024-02-28T11:37:41;72.43;;;40.30;;
83649;SDS011;73612;50.948;6.956;2024-02-28T11:40:08;69.70;;;38.90;;
83649;SDS011;73612;50.948;6.956;2024-02-28T11:42:36;74.60;;;41.73;;
83649;SDS011;73612;50.948;6.956;2024-02-28T11:45:02;67.60;;;39.73;;
83649;SDS011;73612;50.948;6.956;2024-02-28T11:47:30;71.17;;;39.33;;
83649;SDS011;73612;50.948;6.956;2024-02-28T11:49:59;64.40;;;39.47;;
83649;SDS011;73612;50.948;6.956;2024-02-28T11:52:25;70.77;;;39.23;;
83649;SDS011;73612;50.948;6.956;2024-02-28T11:54:51;64.73;;;38.20;;
83649;SDS011;73612;50.948;6.956;2024-02-28T11:57:18;65.27;;;36.47;;
83649;SDS011;73612;50.948;6.956;2024-02-28T11:59:44;64.23;;;37.50;;
83649;SDS011;73612;50.948;6.956;2024-02-28T12:02:11;65.30;;;36.80;;
83649;SDS011;73612;50.948;6.956;2024-02-28T12:04:38;63.67;;;37.90;;
83649;SDS011;73612;50.948;6.956;2024-02-28T12:07:04;65.27;;;39.23;;
83649;SDS011;73612;50.948;6.956;2024-02-28T12:09:31;67.77;;;39.97;;
83649;SDS011;73612;50.948;6.956;2024-02-28T12:12:00;70.27;;;37.07;;
83649;SDS011;73612;50.948;6.956;2024-02-28T12:14:27;57.47;;;35.80;;
83649;SDS011;73612;50.948;6.956;2024-02-28T12:16:54;57.97;;;35.90;;
83649;SDS011;73612;50.948;6.956;2024-02-28T12:19:20;61.37;;;38.07;;
83649;SDS011;73612;50.948;6.956;2024-02-28T12:21:47;59.80;;;35.63;;
83649;SDS011;73612;50.948;6.956;2024-02-28T12:24:13;64.67;;;36.87;;
83649;SDS011;73612;50.948;6.956;2024-02-28T12:26:40;55.13;;;33.07;;
83649;SDS011;73612;50.948;6.956;2024-02-28T12:29:07;56.93;;;33.63;;
83649;SDS011;73612;50.948;6.956;2024-02-28T12:31:33;53.37;;;31.60;;
83649;SDS011;73612;50.948;6.956;2024-02-28T12:34:00;53.97;;;31.70;;
83649;SDS011;73612;50.948;6.956;2024-02-28T12:36:26;51.77;;;30.93;;
83649;SDS011;73612;50.948;6.956;2024-02-28T12:38:53;49.27;;;29.77;;
83649;SDS011;73612;50.948;6.956;2024-02-28T12:41:20;43.60;;;26.43;;
83649;SDS011;73612;50.948;6.956;2024-02-28T12:43:46;57.77;;;33.87;;
83649;SDS011;73612;50.948;6.956;2024-02-28T12:46:13;53.43;;;30.77;;
83649;SDS011;73612;50.948;6.956;2024-02-28T12:48:39;60.33;;;32.93;;
83649;SDS011;73612;50.948;6.956;2024-02-28T12:51:06;55.63;;;31.30;;
83649;SDS011;73612;50.948;6.956;2024-02-28T12:53:32;49.43;;;29.87;;
83649;SDS011;73612;50.948;6.956;2024-02-28T12:55:59;51.27;;;30.97;;
83649;SDS011;73612;50.948;6.956;2024-02-28T12:58:26;52.73;;;32.37;;
83649;SDS011;73612;50.948;6.956;2024-02-28T13:00:53;57.43;;;33.40;;
83649;SDS011;73612;50.948;6.956;2024-02-28T13:03:19;52.57;;;30.67;;
83649;SDS011;73612;50.948;6.956;2024-02-28T13:05:45;53.10;;;30.23;;
83649;SDS011;73612;50.948;6.956;2024-02-28T13:08:12;52.67;;;32.23;;
83649;SDS011;73612;50.948;6.956;2024-02-28T13:10:39;53.83;;;32.03;;
83649;SDS011;73612;50.948;6.956;2024-02-28T13:13:05;53.17;;;31.73;;
83649;SDS011;73612;50.948;6.956;2024-02-28T13:15:32;53.37;;;32.73;;
83649;SDS011;73612;50.948;6.956;2024-02-28T13:17:59;53.73;;;32.03;;
83649;SDS011;73612;50.948;6.956;2024-02-28T13:20:25;50.17;;;31.17;;
83649;SDS011;73612;50.948;6.956;2024-02-28T13:22:52;50.20;;;31.87;;
83649;SDS011;73612;50.948;6.956;2024-02-28T13:25:19;51.50;;;33.23;;
83649;SDS011;73612;50.948;6.956;2024-02-28T13:27:45;51.87;;;33.77;;
83649;SDS011;73612;50.948;6.956;2024-02-28T13:30:12;53.27;;;33.30;;
83649;SDS011;73612;50.948;6.956;2024-02-28T13:32:39;54.17;;;30.37;;
83649;SDS011;73612;50.948;6.956;2024-02-28T13:35:05;49.87;;;28.23;;
83649;SDS011;73612;50.948;6.956;2024-02-28T13:37:32;46.93;;;28.77;;
83649;SDS011;73612;50.948;6.956;2024-02-28T13:39:59;45.87;;;28.13;;
83649;SDS011;73612;50.948;6.956;2024-02-28T13:42:25;48.10;;;29.80;;
83649;SDS011;73612;50.948;6.956;2024-02-28T13:44:52;47.27;;;29.57;;
83649;SDS011;73612;50.948;6.956;2024-02-28T13:47:19;49.50;;;30.50;;
83649;SDS011;73612;50.948;6.956;2024-02-28T13:49:46;47.87;;;28.47;;
83649;SDS011;73612;50.948;6.956;2024-02-28T13:52:12;48.77;;;29.47;;
83649;SDS011;73612;50.948;6.956;2024-02-28T13:54:39;49.37;;;28.93;;
83649;SDS011;73612;50.948;6.956;2024-02-28T13:57:05;48.30;;;28.13;;
83649;SDS011;73612;50.948;6.956;2024-02-28T13:59:33;45.07;;;26.43;;
83649;SDS011;73612;50.948;6.956;2024-02-28T14:01:59;45.67;;;26.07;;
83649;SDS011;73612;50.948;6.956;2024-02-28T14:04:26;43.53;;;26.07;;
83649;SDS011;73612;50.948;6.956;2024-02-28T14:06:53;45.30;;;26.87;;
83649;SDS011;73612;50.948;6.956;2024-02-28T14:09:20;43.00;;;26.80;;